createdAt,value
2019-01-04T00:02:05.818Z,2.50
2019-01-04T00:04:39.442Z,2.51
2019-01-04T00:07:13.042Z,2.37
2019-01-04T00:09:46.681Z,2.37
2019-01-04T00:12:20.257Z,2.31
2019-01-04T00:14:53.911Z,2.26
2019-01-04T00:17:27.491Z,2.32
2019-01-04T00:20:01.108Z,2.31
2019-01-04T00:22:34.714Z,2.32
2019-01-04T00:25:08.422Z,2.32
2019-01-04T00:27:42.005Z,2.21
2019-01-04T00:30:15.703Z,2.26
2019-01-04T00:32:49.288Z,2.31
2019-01-04T00:35:22.900Z,2.36
2019-01-04T00:37:56.496Z,2.25
2019-01-04T00:40:30.196Z,2.27
2019-01-04T00:43:03.808Z,2.29
2019-01-04T00:45:37.551Z,2.21
2019-01-04T00:48:11.150Z,2.08
2019-01-04T00:50:44.777Z,2.06
2019-01-04T00:53:18.367Z,2.11
2019-01-04T00:56:31.838Z,2.17
2019-01-04T00:59:45.329Z,2.17
2019-01-04T01:02:57.648Z,2.23
2019-01-04T01:06:09.707Z,2.24
2019-01-04T01:09:23.172Z,2.14
2019-01-04T01:12:35.348Z,2.19
2019-01-04T01:15:47.559Z,2.23
2019-01-04T01:18:59.742Z,2.22
2019-01-04T01:22:13.364Z,2.23
2019-01-04T01:25:25.537Z,2.23
2019-01-04T01:28:39.092Z,2.21
2019-01-04T01:31:51.262Z,2.09
2019-01-04T01:35:03.546Z,2.08
2019-01-04T01:38:15.715Z,2.09
2019-01-04T01:41:27.927Z,2.12
2019-01-04T01:44:40.112Z,2.07
2019-01-04T01:47:53.560Z,2.03
2019-01-04T01:51:06.990Z,2.00
2019-01-04T01:54:20.456Z,2.01
2019-01-04T01:56:54.049Z,1.96
2019-01-04T01:59:27.713Z,1.98
2019-01-04T02:05:14.498Z,1.98
2019-01-04T02:08:07.260Z,1.98
2019-01-04T02:10:40.792Z,1.93
2019-01-04T02:13:14.526Z,1.86
2019-01-04T02:15:47.959Z,1.90
2019-01-04T02:18:21.589Z,1.88
2019-01-04T02:20:55.091Z,1.85
2019-01-04T02:23:28.631Z,1.84
2019-01-04T02:26:02.136Z,1.78
2019-01-04T02:28:35.676Z,1.79
2019-01-04T02:31:09.185Z,1.78
2019-01-04T02:36:22.187Z,1.68
2019-01-04T02:38:55.743Z,1.67
2019-01-04T02:41:29.174Z,1.57
2019-01-04T02:44:22.062Z,1.75
2019-01-04T02:46:55.579Z,1.64
2019-01-04T02:49:29.126Z,1.73
2019-01-04T02:52:02.626Z,1.78
2019-01-04T02:54:36.228Z,1.91
2019-01-04T03:03:03.079Z,2.23
2019-01-04T03:05:36.577Z,2.31
2019-01-04T03:08:10.223Z,2.40
2019-01-04T03:10:43.719Z,2.48
2019-01-04T03:13:17.325Z,2.57
2019-01-04T03:15:50.839Z,2.62
2019-01-04T03:18:24.467Z,2.72
2019-01-04T03:20:58.016Z,2.82
2019-01-04T03:23:31.640Z,2.89
2019-01-04T03:26:05.228Z,2.98
2019-01-04T03:28:38.729Z,3.02
2019-01-04T03:31:12.230Z,3.09
2019-01-04T03:33:45.853Z,3.16
2019-01-04T03:36:19.358Z,3.18
2019-01-04T03:41:31.361Z,3.22
2019-01-04T03:44:04.895Z,3.26
2019-01-04T03:46:38.414Z,3.27
2019-01-04T03:49:11.952Z,3.35
2019-01-04T03:51:45.462Z,3.37
2019-01-04T03:54:19.000Z,3.43
2019-01-04T03:56:52.516Z,3.49
2019-01-04T03:59:26.156Z,3.49
2019-01-04T04:01:59.749Z,3.51
2019-01-04T04:04:33.377Z,3.53
2019-01-04T04:07:06.881Z,3.53
2019-01-04T04:09:40.612Z,3.55
2019-01-04T04:12:14.178Z,3.62
2019-01-04T04:14:47.727Z,3.64
2019-01-04T04:17:21.246Z,3.69
2019-01-04T04:19:54.807Z,3.73
2019-01-04T04:22:28.326Z,3.74
2019-01-04T04:25:01.962Z,3.71
2019-01-04T04:27:35.478Z,3.72
2019-01-04T04:30:09.014Z,3.73
2019-01-04T04:32:42.453Z,3.78
2019-01-04T04:35:16.083Z,3.83
2019-01-04T04:37:49.588Z,3.87
2019-01-04T04:40:23.209Z,3.89
2019-01-04T04:42:56.784Z,3.92
2019-01-04T04:45:30.265Z,3.95
2019-01-04T04:48:03.776Z,4.00
2019-01-04T04:50:37.423Z,4.03
2019-01-04T04:53:10.945Z,4.02
2019-01-04T04:55:44.565Z,4.04
2019-01-04T04:58:18.003Z,4.08
2019-01-04T05:00:51.548Z,4.03
2019-01-04T05:03:24.975Z,3.96
2019-01-04T05:05:58.728Z,4.05
2019-01-04T05:08:32.167Z,4.13
2019-01-04T05:11:05.717Z,4.22
2019-01-04T05:13:39.154Z,4.23
2019-01-04T05:16:12.711Z,4.26
2019-01-04T05:18:46.148Z,4.24
2019-01-04T05:21:19.679Z,4.27
2019-01-04T05:23:53.180Z,4.29
2019-01-04T05:26:26.657Z,4.34
2019-01-04T05:29:00.089Z,4.38
2019-01-04T05:31:33.625Z,4.42
2019-01-04T05:34:07.147Z,4.42
2019-01-04T05:36:40.687Z,4.41
2019-01-04T05:39:14.259Z,4.43
2019-01-04T05:41:47.829Z,4.51
2019-01-04T05:44:21.331Z,4.56
2019-01-04T05:46:54.940Z,4.64
2019-01-04T05:49:28.457Z,4.69
2019-01-04T05:52:01.985Z,4.62
2019-01-04T05:54:35.497Z,4.70
2019-01-04T05:57:09.060Z,4.72
2019-01-04T05:59:42.493Z,4.68
2019-01-04T06:02:16.107Z,4.59
2019-01-04T06:04:49.619Z,4.64
2019-01-04T06:07:23.261Z,4.69
2019-01-04T06:09:56.767Z,4.72
2019-01-04T06:12:30.317Z,4.75
2019-01-04T06:18:16.839Z,4.71
2019-01-04T06:20:50.346Z,4.82
2019-01-04T06:23:23.884Z,4.78
2019-01-04T06:25:57.393Z,4.75
2019-01-04T06:28:31.032Z,4.78
2019-01-04T06:31:04.610Z,4.70
2019-01-04T06:33:38.163Z,4.82
2019-01-04T06:36:11.591Z,4.89
2019-01-04T06:38:45.132Z,4.93
2019-01-04T06:41:18.672Z,4.96
2019-01-04T06:43:52.256Z,4.94
2019-01-04T06:46:25.762Z,4.94
2019-01-04T06:48:59.224Z,4.96
2019-01-04T06:51:32.733Z,4.96
2019-01-04T06:54:46.504Z,4.92
2019-01-04T06:57:20.014Z,4.98
2019-01-04T06:59:53.552Z,4.99
2019-01-04T07:02:27.060Z,5.02
2019-01-04T07:05:00.614Z,5.02
2019-01-04T07:07:34.047Z,5.01
2019-01-04T07:10:47.501Z,5.03
2019-01-04T07:13:20.999Z,5.09
2019-01-04T07:15:54.543Z,5.07
2019-01-04T07:18:28.055Z,5.06
2019-01-04T07:21:01.609Z,5.04
2019-01-04T07:23:35.111Z,5.03
2019-01-04T07:26:08.829Z,5.06
2019-01-04T07:28:42.338Z,5.08
2019-01-04T07:31:15.879Z,5.08
2019-01-04T07:33:49.468Z,5.06
2019-01-04T07:36:23.089Z,5.13
2019-01-04T07:38:56.593Z,5.17
2019-01-04T07:41:30.214Z,5.28
2019-01-04T07:44:03.787Z,5.23
2019-01-04T07:46:37.334Z,5.21
2019-01-04T07:49:10.912Z,5.30
2019-01-04T07:51:44.458Z,5.24
2019-01-04T07:54:17.961Z,5.29
2019-01-04T07:56:51.592Z,5.31
2019-01-04T07:59:25.104Z,5.33
2019-01-04T08:01:58.658Z,5.38
2019-01-04T08:04:32.165Z,5.36
2019-01-04T08:09:45.132Z,5.49
2019-01-04T08:12:18.769Z,5.30
2019-01-04T08:14:52.278Z,5.40
2019-01-04T08:17:25.901Z,5.43
2019-01-04T08:19:59.329Z,5.46
2019-01-04T08:22:32.792Z,5.49
2019-01-04T08:25:46.182Z,5.55
2019-01-04T08:30:58.968Z,5.65
2019-01-04T08:33:32.605Z,5.66
2019-01-04T08:36:06.111Z,5.63
2019-01-04T08:41:18.669Z,5.69
2019-01-04T08:43:52.210Z,5.74
2019-01-04T08:46:25.717Z,5.72
2019-01-04T08:48:59.324Z,5.66
2019-01-04T08:51:32.847Z,5.83
2019-01-04T08:54:06.645Z,5.82
2019-01-04T08:56:40.157Z,5.88
2019-01-04T08:59:13.687Z,5.87
2019-01-04T09:01:47.191Z,5.92
2019-01-04T09:04:20.755Z,5.93
2019-01-04T09:06:54.190Z,6.02
2019-01-04T09:09:27.751Z,5.97
2019-01-04T09:12:01.190Z,6.01
2019-01-04T09:14:34.798Z,6.07
2019-01-04T09:17:08.327Z,6.06
2019-01-04T09:19:41.963Z,6.17
2019-01-04T09:22:15.852Z,6.13
2019-01-04T09:24:50.757Z,6.17
2019-01-04T09:27:24.341Z,6.24
2019-01-04T09:29:57.888Z,6.30
2019-01-04T09:32:31.407Z,6.32
2019-01-04T09:35:44.819Z,6.28
2019-01-04T09:38:18.165Z,6.30
2019-01-04T09:41:31.702Z,6.32
2019-01-04T09:44:05.207Z,6.35
2019-01-04T09:46:38.745Z,6.35
2019-01-04T09:49:12.251Z,6.33
2019-01-04T09:51:45.713Z,6.32
2019-01-04T09:54:19.278Z,6.34
2019-01-04T09:56:52.931Z,6.37
2019-01-04T09:59:26.446Z,6.39
2019-01-04T10:01:59.891Z,6.45
2019-01-04T10:04:52.740Z,6.56
2019-01-04T10:07:26.376Z,6.56
2019-01-04T10:09:59.867Z,6.47
2019-01-04T10:12:33.472Z,6.48
2019-01-04T10:15:46.882Z,6.51
2019-01-04T10:18:20.507Z,6.54
2019-01-04T10:20:54.024Z,6.68
2019-01-04T10:23:27.632Z,6.73
2019-01-04T10:26:01.142Z,6.81
2019-01-04T10:28:34.545Z,6.71
2019-01-04T10:31:08.021Z,6.75
2019-01-04T10:33:41.571Z,6.78
2019-01-04T10:36:15.150Z,6.79
2019-01-04T10:38:48.681Z,6.73
2019-01-04T10:41:22.117Z,6.85
2019-01-04T10:44:14.920Z,6.95
2019-01-04T10:47:07.758Z,6.95
2019-01-04T10:50:00.724Z,6.82
2019-01-04T10:52:53.570Z,7.01
2019-01-04T10:55:27.224Z,7.01
2019-01-04T10:58:00.763Z,6.97
2019-01-04T11:00:34.381Z,6.91
2019-01-04T11:03:07.873Z,6.96
2019-01-04T11:05:41.418Z,6.91
2019-01-04T11:08:14.848Z,6.97
2019-01-04T11:10:48.510Z,7.07
2019-01-04T11:13:21.956Z,7.08
2019-01-04T11:15:55.560Z,7.06
2019-01-04T11:18:28.995Z,7.16
2019-01-04T11:21:21.908Z,7.20
2019-01-04T11:24:35.350Z,7.20
2019-01-04T11:27:08.879Z,7.23
2019-01-04T11:30:22.355Z,7.07
2019-01-04T11:33:35.787Z,7.07
2019-01-04T11:36:49.195Z,7.07
2019-01-04T11:40:02.897Z,7.08
2019-01-04T11:43:14.969Z,6.91
2019-01-04T11:46:27.254Z,7.14
2019-01-04T11:49:40.664Z,7.14
2019-01-04T11:52:54.105Z,7.08
2019-01-04T11:55:27.538Z,6.97
2019-01-04T11:58:01.008Z,6.97
2019-01-04T12:00:34.510Z,6.82
2019-01-04T12:03:08.033Z,6.92
2019-01-04T12:05:41.541Z,7.06
2019-01-04T12:11:13.749Z,7.12
2019-01-04T12:14:06.608Z,7.02
2019-01-04T12:16:40.027Z,7.02
2019-01-04T12:19:13.570Z,7.17
2019-01-04T12:22:06.406Z,7.03
2019-01-04T12:24:39.945Z,7.03
2019-01-04T12:27:32.733Z,7.26
2019-01-04T12:30:46.289Z,7.26
2019-01-04T12:33:19.787Z,7.15
2019-01-04T12:35:53.256Z,7.24
2019-01-04T12:38:26.831Z,7.14
2019-01-04T12:41:00.403Z,7.21
2019-01-04T12:43:33.907Z,7.21
2019-01-04T12:46:07.761Z,7.26
2019-01-04T12:48:41.651Z,7.25
2019-01-04T12:51:34.450Z,7.34
2019-01-04T12:54:07.970Z,7.39
2019-01-04T12:56:41.500Z,7.33
2019-01-04T12:59:15.008Z,7.32
2019-01-04T13:01:48.738Z,7.33
2019-01-04T13:04:22.244Z,7.31
2019-01-04T13:06:55.943Z,7.31
2019-01-04T13:09:29.464Z,7.29
2019-01-04T13:12:03.108Z,7.20
2019-01-04T13:14:36.608Z,7.34
2019-01-04T13:17:10.149Z,7.29
2019-01-04T13:19:43.656Z,7.36
2019-01-04T13:22:17.196Z,7.40
2019-01-04T13:24:50.725Z,7.38
2019-01-04T13:27:24.415Z,7.26
2019-01-04T13:29:57.932Z,7.34
2019-01-04T13:32:31.520Z,7.31
2019-01-04T13:35:44.885Z,7.41
2019-01-04T13:38:20.077Z,7.44
2019-01-04T13:40:53.660Z,7.55
2019-01-04T13:43:27.204Z,7.41
2019-01-04T13:46:00.710Z,7.47
2019-01-04T13:48:34.333Z,7.55
2019-01-04T13:51:07.849Z,7.43
2019-01-04T13:53:41.460Z,7.38
2019-01-04T13:56:14.950Z,7.56
2019-01-04T13:58:48.515Z,7.60
2019-01-04T14:01:22.016Z,7.53
2019-01-04T14:03:55.542Z,7.40
2019-01-04T14:06:29.046Z,7.50
2019-01-04T14:09:02.599Z,7.51
2019-01-04T14:11:36.352Z,7.56
2019-01-04T14:14:09.988Z,7.61
2019-01-04T14:16:43.569Z,7.64
2019-01-04T14:19:17.179Z,7.57
2019-01-04T14:21:50.684Z,7.57
2019-01-04T14:24:24.217Z,7.65
2019-01-04T14:27:05.155Z,7.77
2019-01-04T14:29:38.705Z,7.70
2019-01-04T14:32:12.197Z,7.75
2019-01-04T14:34:45.750Z,7.75
2019-01-04T14:37:19.328Z,7.76
2019-01-04T14:42:31.830Z,7.82
2019-01-04T14:45:45.382Z,7.85
2019-01-04T14:48:19.978Z,7.86
2019-01-04T14:50:53.631Z,7.91
2019-01-04T14:53:27.386Z,7.74
2019-01-04T14:56:01.003Z,7.82
2019-01-04T14:58:34.574Z,7.88
2019-01-04T15:01:08.198Z,7.95
2019-01-04T15:03:41.769Z,7.91
2019-01-04T15:11:54.409Z,7.99
2019-01-04T15:14:27.847Z,7.95
2019-01-04T15:17:01.458Z,8.00
2019-01-04T15:19:35.002Z,7.90
2019-01-04T15:22:08.571Z,7.98
2019-01-04T15:24:42.162Z,8.15
2019-01-04T15:27:35.132Z,8.20
2019-01-04T15:30:48.573Z,8.07
2019-01-04T15:33:22.134Z,8.14
2019-01-04T15:35:55.707Z,8.23
2019-01-04T15:38:50.407Z,8.29
2019-01-04T15:41:24.214Z,8.25
2019-01-04T15:44:17.723Z,8.24
2019-01-04T15:46:51.701Z,8.30
2019-01-04T15:52:26.190Z,8.29
2019-01-04T15:55:00.216Z,8.38
2019-01-04T16:00:52.684Z,8.34
2019-01-04T16:03:26.466Z,8.37
2019-01-04T16:05:59.983Z,8.37
2019-01-04T16:08:33.611Z,8.39
2019-01-04T16:11:07.120Z,8.40
2019-01-04T16:13:40.826Z,8.43
2019-01-04T16:16:14.316Z,8.45
2019-01-04T16:18:48.377Z,8.39
2019-01-04T16:21:21.883Z,8.46
2019-01-04T16:23:55.489Z,8.48
2019-01-04T16:26:29.085Z,8.49
2019-01-04T16:31:41.877Z,8.47
2019-01-04T16:34:15.510Z,8.61
2019-01-04T16:36:49.255Z,8.63
2019-01-04T16:39:23.310Z,8.54
2019-01-04T16:41:57.277Z,8.59
2019-01-04T16:44:31.000Z,8.70
2019-01-04T16:47:04.918Z,8.54
2019-01-04T16:49:38.841Z,8.58
2019-01-04T16:52:12.455Z,8.66
2019-01-04T16:54:46.332Z,8.69
2019-01-04T16:57:20.255Z,8.69
2019-01-04T16:59:54.214Z,8.71
2019-01-04T17:02:27.916Z,8.80
2019-01-04T17:05:01.692Z,8.77
2019-01-04T17:07:35.476Z,8.81
2019-01-04T17:10:09.519Z,8.88
2019-01-04T17:12:43.116Z,8.88
2019-01-04T17:17:56.027Z,8.88
2019-01-04T17:20:30.157Z,8.84
2019-01-04T17:23:03.904Z,8.79
2019-01-04T17:25:37.928Z,8.86
2019-01-04T17:28:11.746Z,8.84
2019-01-04T17:30:45.814Z,8.87
2019-01-04T17:33:19.534Z,8.85
2019-01-04T17:35:53.602Z,8.82
2019-01-04T17:38:27.180Z,8.90
2019-01-04T17:41:00.988Z,8.90
2019-01-04T17:43:34.503Z,8.95
2019-01-04T17:46:08.347Z,8.98
2019-01-04T17:48:41.899Z,8.97
2019-01-04T17:51:15.526Z,8.96
2019-01-04T17:53:49.094Z,8.86
2019-01-04T17:56:22.627Z,8.82
2019-01-04T17:58:56.127Z,8.95
2019-01-04T18:01:29.764Z,8.87
2019-01-04T18:04:03.273Z,8.95
2019-01-04T18:06:36.814Z,8.84
2019-01-04T18:09:10.321Z,8.86
2019-01-04T18:11:43.864Z,9.00
2019-01-04T18:14:17.294Z,9.00
2019-01-04T18:16:50.839Z,9.01
2019-01-04T18:19:24.319Z,9.03
2019-01-04T18:21:57.856Z,8.99
2019-01-04T18:24:31.286Z,9.04
2019-01-04T18:27:04.831Z,9.02
2019-01-04T18:29:38.344Z,8.98
2019-01-04T18:32:11.870Z,8.96
2019-01-04T18:34:45.451Z,8.99
2019-01-04T18:37:18.945Z,8.95
2019-01-04T18:39:52.434Z,8.93
2019-01-04T18:42:26.111Z,9.00
2019-01-04T18:44:59.617Z,9.09
2019-01-04T18:47:39.146Z,9.14
2019-01-04T18:50:48.376Z,9.07
2019-01-04T18:53:21.931Z,9.13
2019-01-04T18:55:55.439Z,9.18
2019-01-04T18:58:28.975Z,9.21
2019-01-04T19:01:02.554Z,9.10
2019-01-04T19:03:36.177Z,9.19
2019-01-04T19:06:09.689Z,9.17
2019-01-04T19:08:43.340Z,9.23
2019-01-04T19:11:16.833Z,9.24
2019-01-04T19:13:50.382Z,9.31
2019-01-04T19:16:23.945Z,9.21
2019-01-04T19:18:57.483Z,9.28
2019-01-04T19:21:30.985Z,9.31
2019-01-04T19:24:04.523Z,9.21
2019-01-04T19:26:38.023Z,9.19
2019-01-04T19:29:11.722Z,9.33
2019-01-04T19:31:45.227Z,9.35
2019-01-04T19:34:18.791Z,9.35
2019-01-04T19:36:52.343Z,9.32
2019-01-04T19:39:26.087Z,9.32
2019-01-04T19:41:59.593Z,9.37
2019-01-04T19:47:12.219Z,9.43
2019-01-04T19:49:45.771Z,9.47
2019-01-04T19:52:19.272Z,9.44
2019-01-04T19:54:52.903Z,9.24
2019-01-04T19:57:26.404Z,9.39
2019-01-04T19:59:59.927Z,9.38
2019-01-04T20:02:33.435Z,9.41
2019-01-04T20:05:46.883Z,9.49
2019-01-04T20:09:18.203Z,9.53
2019-01-04T20:12:31.736Z,9.45
2019-01-04T20:15:45.475Z,9.50
2019-01-04T20:18:59.176Z,9.48
2019-01-04T20:21:51.974Z,9.52
2019-01-04T20:24:45.099Z,9.54
2019-01-04T20:27:37.917Z,9.60
2019-01-04T20:30:30.661Z,9.60
2019-01-04T20:33:23.293Z,9.42
2019-01-04T20:36:15.978Z,9.58
2019-01-04T20:39:08.704Z,9.48
2019-01-04T20:42:01.515Z,9.54
2019-01-04T20:44:54.146Z,9.63
2019-01-04T20:47:46.998Z,9.60
2019-01-04T20:50:39.615Z,9.59
2019-01-04T20:53:32.424Z,9.69
2019-01-04T20:56:25.089Z,9.68
2019-01-04T20:59:17.820Z,9.56
2019-01-04T21:02:10.449Z,9.62
2019-01-04T21:05:22.483Z,9.65
2019-01-04T21:08:15.201Z,9.58
2019-01-04T21:11:07.951Z,9.54
2019-01-04T21:14:00.575Z,9.70
2019-01-04T21:16:53.331Z,9.65
2019-01-04T21:19:46.052Z,9.56
2019-01-04T21:22:38.738Z,9.56
2019-01-04T21:25:31.407Z,9.55
2019-01-04T21:28:24.068Z,9.74
2019-01-04T21:31:16.752Z,9.79
2019-01-04T21:34:09.415Z,9.79
2019-01-04T21:37:02.042Z,9.79
2019-01-04T21:42:35.165Z,9.66
2019-01-04T21:45:27.821Z,9.82
2019-01-04T21:48:20.417Z,9.88
2019-01-04T21:51:13.050Z,9.87
2019-01-04T21:54:05.711Z,9.91
2019-01-04T21:56:58.335Z,9.80
2019-01-04T21:59:51.005Z,9.86
2019-01-04T22:02:43.646Z,9.92
2019-01-04T22:05:36.439Z,9.99
2019-01-04T22:08:29.263Z,9.94
2019-01-04T22:11:22.014Z,9.95
2019-01-04T22:17:28.189Z,9.99
2019-01-04T22:20:20.823Z,9.82
2019-01-04T22:23:13.597Z,9.91
2019-01-04T22:26:06.228Z,9.95
2019-01-04T22:28:58.899Z,10.03
2019-01-04T22:34:45.665Z,10.03
2019-01-04T22:37:38.289Z,10.10
2019-01-04T22:40:30.970Z,10.10
2019-01-04T22:43:23.600Z,10.18
2019-01-04T22:46:16.287Z,10.15
2019-01-04T22:49:08.928Z,10.12
2019-01-04T22:52:01.672Z,10.22
2019-01-04T22:54:54.299Z,10.11
2019-01-04T23:00:51.674Z,10.11
2019-01-04T23:03:44.306Z,10.17
2019-01-04T23:09:21.259Z,10.12
2019-01-04T23:12:13.927Z,10.19
2019-01-04T23:17:47.220Z,10.08
2019-01-04T23:26:19.440Z,10.18
2019-01-04T23:29:08.639Z,10.04
2019-01-04T23:32:01.320Z,10.15
2019-01-04T23:34:53.980Z,10.13
2019-01-04T23:37:46.843Z,10.25
2019-01-04T23:40:39.570Z,10.11
2019-01-04T23:43:32.275Z,10.07
2019-01-04T23:46:24.936Z,10.18
2019-01-04T23:49:17.730Z,10.16
2019-01-04T23:52:10.471Z,10.15
2019-01-04T23:55:03.201Z,10.21
